Time;durP1;ratioP1;P1;durP2;ratioP2;P2;SDS_P1;SDS_P2;PMS_P1;PMS_P2;Temp;Humidity;BMP_temperature;BMP_pressure;BME280_temperature;BME280_humidity;BME280_pressure;Samples;Min_cycle;Max_cycle;Signal;HPM_P1;HPM_P2
2022/11/18 00:00:56;;;;;;;46.15;6.90;;;;;;;6.23;87.85;92431.19;5091936;28;20024;-34
2022/11/18 00:03:22;;;;;;;65.25;7.93;;;;;;;6.26;88.36;92432.13;5091693;28;20020;-34
2022/11/18 00:05:57;;;;;;;32.25;6.07;;;;;;;6.18;89.30;92429.34;5091835;28;20032;-34
2022/11/18 00:08:23;;;;;;;38.58;6.10;;;;;;;6.22;90.27;92429.00;5073493;28;20020;-34
2022/11/18 00:10:49;;;;;;;47.50;7.10;;;;;;;6.28;90.59;92432.31;5091578;28;20032;-34
2022/11/18 00:16:11;;;;;;;79.88;9.18;;;;;;;6.25;90.05;92431.38;5091569;28;20514;-34
2022/11/18 00:18:37;;;;;;;90.28;7.53;;;;;;;6.42;89.28;92442.56;5091185;28;20139;-34
2022/11/18 00:21:08;;;;;;;107.78;9.57;;;;;;;6.41;88.90;92435.59;5091579;28;20111;-34
2022/11/18 00:23:34;;;;;;;117.03;7.55;;;;;;;6.42;88.51;92441.81;5091329;28;20032;-34
2022/11/18 00:26:08;;;;;;;59.03;6.15;;;;;;;6.44;88.40;92445.50;5091142;28;20043;-34
2022/11/18 00:28:34;;;;;;;55.97;6.55;;;;;;;6.42;88.08;92441.81;5091453;28;20111;-34
2022/11/18 00:31:01;;;;;;;84.82;6.93;;;;;;;6.24;88.51;92438.13;5090905;28;20024;-34
2022/11/18 00:33:30;;;;;;;75.57;5.90;;;;;;;6.29;87.97;92433.75;5091126;28;20028;-34
2022/11/18 00:35:55;;;;;;;35.03;5.47;;;;;;;6.26;87.96;92441.06;5091398;28;20047;-34
2022/11/18 00:38:21;;;;;;;49.22;7.85;;;;;;;6.19;88.77;92441.78;5090911;28;20523;-34
2022/11/18 00:40:46;;;;;;;71.70;8.88;;;;;;;6.23;89.09;92449.66;5090162;28;20031;-34
2022/11/18 00:43:12;;;;;;;75.43;7.78;;;;;;;6.28;88.47;92440.53;5091145;28;20020;-34
2022/11/18 00:45:37;;;;;;;31.40;7.65;;;;;;;6.30;87.51;92432.50;5091169;28;20698;-34
2022/11/18 00:48:03;;;;;;;48.70;9.25;;;;;;;6.11;87.17;92436.28;5091162;28;20494;-34
2022/11/18 00:50:29;;;;;;;11.45;6.88;;;;;;;5.98;87.79;92439.16;5090816;28;20536;-34
2022/11/18 00:52:54;;;;;;;24.95;7.68;;;;;;;6.00;88.09;92436.63;5091084;28;20035;-34
2022/11/18 00:55:21;;;;;;;42.20;12.00;;;;;;;5.97;87.46;92432.25;5090901;28;20480;-34
2022/11/18 00:57:46;;;;;;;33.45;10.70;;;;;;;5.90;87.57;92430.19;5090948;28;20106;-34
2022/11/18 01:00:12;;;;;;;33.22;9.13;;;;;;;6.03;87.18;92426.59;5090850;28;20047;-34
2022/11/18 01:02:38;;;;;;;16.70;8.38;;;;;;;5.95;87.29;92423.09;5090646;28;20195;-34
2022/11/18 01:05:04;;;;;;;17.77;8.57;;;;;;;5.91;87.92;92430.94;5090497;28;20028;-34
2022/11/18 01:07:29;;;;;;;34.10;8.95;;;;;;;5.95;88.65;92423.84;5090509;28;20028;-34
2022/11/18 01:09:56;;;;;;;19.02;8.38;;;;;;;5.91;87.88;92420.69;5090533;28;20183;-34
2022/11/18 01:15:06;;;;;;;17.85;9.13;;;;;;;6.02;86.56;92427.88;5090746;28;20077;-34
2022/11/18 01:17:31;;;;;;;42.03;10.43;;;;;;;6.00;86.70;92422.91;5090186;28;20051;-34
2022/11/18 01:19:59;;;;;;;38.50;9.48;;;;;;;5.78;87.00;92420.81;5090320;28;20031;-34
2022/11/18 01:22:25;;;;;;;13.93;8.50;;;;;;;5.82;87.19;92428.69;5090477;28;20101;-34
2022/11/18 01:24:50;;;;;;;47.10;10.23;;;;;;;5.72;86.89;92422.25;5089902;28;20425;-34
2022/11/18 01:27:16;;;;;;;37.45;10.98;;;;;;;5.47;87.64;92423.97;5090252;28;20031;-34
2022/11/18 01:29:41;;;;;;;24.40;7.65;;;;;;;5.52;87.67;92412.88;5090092;28;20016;-34
2022/11/18 01:32:07;;;;;;;17.15;6.97;;;;;;;5.42;88.45;92411.91;5090634;28;20024;-34
2022/11/18 01:34:32;;;;;;;27.08;6.97;;;;;;;5.50;88.88;92418.13;5090427;28;20024;-34
2022/11/18 01:36:58;;;;;;;19.98;5.75;;;;;;;5.42;88.82;92411.91;5072456;28;20427;-34
2022/11/18 01:39:23;;;;;;;26.38;6.25;;;;;;;5.53;89.08;92410.84;5090229;28;20031;-34
2022/11/18 01:41:49;;;;;;;62.30;5.97;;;;;;;5.39;89.32;92404.78;5072080;28;20023;-34
2022/11/18 01:44:52;;;;;;;18.52;6.32;;;;;;;5.44;89.70;92401.13;5090483;28;20024;-34
2022/11/18 01:47:18;;;;;;;92.82;7.05;;;;;;;5.48;90.44;92398.78;5090069;28;20673;-34
2022/11/18 01:49:44;;;;;;;49.30;5.55;;;;;;;5.54;90.14;92398.63;5090139;28;20024;-34
2022/11/18 01:52:10;;;;;;;72.38;7.00;;;;;;;5.49;90.10;92400.25;5092665;28;20193;-34
2022/11/18 01:54:39;;;;;;;78.85;7.05;;;;;;;5.56;90.63;92418.00;5076434;28;20058;-34
2022/11/18 01:57:12;;;;;;;78.38;7.32;;;;;;;5.54;90.91;92406.84;5076168;28;20484;-34
2022/11/18 01:59:40;;;;;;;99.53;8.50;;;;;;;5.66;91.01;92408.72;5094016;28;20027;-34
2022/11/18 02:02:09;;;;;;;110.03;7.63;;;;;;;5.50;91.08;92401.00;5094349;28;20015;-34
2022/11/18 02:04:35;;;;;;;121.70;8.48;;;;;;;5.51;91.31;92403.19;5094104;28;20484;-34
2022/11/18 02:07:00;;;;;;;86.43;5.38;;;;;;;5.64;90.15;92405.78;5093803;28;20031;-34
2022/11/18 02:09:26;;;;;;;106.20;10.35;;;;;;;5.59;90.33;92403.22;5076198;28;20023;-34
2022/11/18 02:11:54;;;;;;;119.88;9.55;;;;;;;5.58;90.01;92404.50;5094159;28;20092;-34
2022/11/18 02:14:25;;;;;;;112.65;7.07;;;;;;;5.52;90.71;92396.44;5094106;28;20089;-34
2022/11/18 02:17:28;;;;;;;90.78;7.65;;;;;;;5.52;90.45;92403.91;5075692;28;20039;-34
2022/11/18 02:20:18;;;;;;;48.90;5.00;;;;;;;5.60;91.15;92405.41;5093709;28;20032;-34
2022/11/18 02:23:12;;;;;;;41.45;4.80;;;;;;;5.63;91.43;92409.78;5075816;28;20031;-34
2022/11/18 02:25:43;;;;;;;83.22;6.28;;;;;;;5.68;91.51;92408.16;5093352;28;20024;-34
2022/11/18 02:28:37;;;;;;;45.35;4.07;;;;;;;5.77;90.89;92402.91;5093874;28;20028;-34
2022/11/18 02:31:03;;;;;;;25.20;3.75;;;;;;;5.65;89.93;92412.72;5092417;28;20020;-34
2022/11/18 02:34:01;;;;;;;40.42;4.28;;;;;;;5.72;89.25;92409.28;5093462;28;20035;-34
2022/11/18 02:36:43;;;;;;;34.50;5.68;;;;;;;5.60;89.15;92412.88;5076055;28;20043;-34
2022/11/18 02:39:18;;;;;;;33.47;4.97;;;;;;;5.43;89.21;92404.44;5093225;28;20024;-34
2022/11/18 02:41:46;;;;;;;48.95;5.00;;;;;;;5.44;89.12;92420.31;5093412;28;20077;-34
2022/11/18 02:44:16;;;;;;;39.42;4.40;;;;;;;5.34;88.24;92411.88;5093533;28;20031;-34
2022/11/18 02:46:45;;;;;;;40.28;4.32;;;;;;;5.10;88.34;92395.13;5093534;28;20024;-34
2022/11/18 02:49:22;;;;;;;17.10;4.25;;;;;;;5.23;88.46;92409.44;5075043;28;20015;-34
2022/11/18 02:51:49;;;;;;;19.65;5.13;;;;;;;5.30;88.52;92410.75;5075114;28;20028;-34
2022/11/18 02:54:17;;;;;;;32.55;4.50;;;;;;;5.24;88.27;92396.50;5074958;28;20031;-34
2022/11/18 02:56:43;;;;;;;21.70;4.40;;;;;;;5.17;88.79;92397.94;5075053;28;20028;-34
2022/11/18 02:59:09;;;;;;;24.65;3.70;;;;;;;5.32;88.19;92411.69;5074715;28;20052;-34
2022/11/18 03:01:35;;;;;;;17.67;3.72;;;;;;;5.14;88.72;92406.47;5092971;28;20085;-34
2022/11/18 03:04:01;;;;;;;13.65;3.17;;;;;;;5.28;88.48;92413.31;5092003;28;20066;-34
2022/11/18 03:06:31;;;;;;;40.63;4.40;;;;;;;5.22;88.37;92416.19;5093024;28;20055;-34
2022/11/18 03:09:18;;;;;;;34.70;5.05;;;;;;;5.29;88.42;92418.22;5075230;28;20052;-34
2022/11/18 03:11:53;;;;;;;16.77;3.78;;;;;;;5.11;88.96;92410.28;5092753;28;20027;-34
2022/11/18 03:14:23;;;;;;;38.80;3.83;;;;;;;5.09;89.16;92413.53;5092728;28;20107;-34
2022/11/18 03:17:13;;;;;;;7.13;2.78;;;;;;;5.16;89.13;92414.84;5091738;28;20064;-34
2022/11/18 03:20:00;;;;;;;40.85;3.17;;;;;;;5.05;89.06;92413.16;5092770;28;20040;-34
2022/11/18 03:22:47;;;;;;;29.42;3.20;;;;;;;4.96;89.36;92410.91;5057834;28;20465;-34
2022/11/18 03:25:19;;;;;;;25.52;3.65;;;;;;;4.95;89.76;92417.66;5092477;28;20020;-34
2022/11/18 03:28:00;;;;;;;38.28;3.92;;;;;;;4.88;89.32;92412.88;5092625;28;20024;-34
2022/11/18 03:30:25;;;;;;;43.58;3.30;;;;;;;4.75;89.11;92401.28;5074319;28;20491;-34
2022/11/18 03:32:56;;;;;;;14.60;3.00;;;;;;;4.98;89.07;92413.13;5074316;28;20039;-34
2022/11/18 03:35:27;;;;;;;37.45;3.13;;;;;;;4.95;88.09;92414.19;5074542;28;20032;-34
2022/11/18 03:37:58;;;;;;;18.88;3.05;;;;;;;5.01;88.08;92409.31;5074995;28;20097;-34
2022/11/18 03:40:28;;;;;;;35.22;3.65;;;;;;;4.94;88.35;92415.44;5074178;28;20020;-34
2022/11/18 03:42:59;;;;;;;3.85;2.22;;;;;;;4.89;88.79;92406.16;5074492;28;20023;-34
2022/11/18 03:45:36;;;;;;;59.63;4.43;;;;;;;4.71;89.40;92407.09;5074242;28;20027;-34
2022/11/18 03:48:08;;;;;;;100.65;8.10;;;;;;;4.85;90.37;92413.94;5074057;28;20031;-34
2022/11/18 03:50:38;;;;;;;89.25;8.20;;;;;;;4.63;90.36;92401.56;5092385;28;20023;-34
2022/11/18 03:53:05;;;;;;;74.22;7.97;;;;;;;4.77;91.24;92410.41;5074332;28;20055;-34
2022/11/18 03:55:35;;;;;;;80.40;5.25;;;;;;;4.72;91.40;92413.31;5092142;28;20480;-34
2022/11/18 03:58:06;;;;;;;72.88;4.25;;;;;;;4.73;90.87;92406.56;5073878;28;20031;-34
2022/11/18 04:00:37;;;;;;;82.50;5.10;;;;;;;4.80;90.56;92405.88;5091802;28;20488;-34
2022/11/18 04:03:03;;;;;;;50.05;4.72;;;;;;;4.73;90.18;92409.28;5073739;28;20024;-34
2022/11/18 04:05:31;;;;;;;48.42;4.28;;;;;;;4.63;90.25;92397.38;5091604;28;20073;-34
2022/11/18 04:08:02;;;;;;;46.75;4.15;;;;;;;4.61;90.30;92408.84;5073688;28;20032;-34
2022/11/18 04:10:36;;;;;;;59.30;4.32;;;;;;;4.76;89.89;92403.50;5091660;28;20522;-34
2022/11/18 04:13:15;;;;;;;45.38;3.80;;;;;;;4.79;89.15;92398.94;5091530;28;20030;-34
2022/11/18 04:15:41;;;;;;;52.20;3.75;;;;;;;4.55;88.98;92406.25;5073869;28;20027;-34
2022/11/18 04:18:07;;;;;;;30.85;3.40;;;;;;;4.56;88.82;92407.72;5073279;28;20082;-34
2022/11/18 04:20:33;;;;;;;15.18;2.65;;;;;;;4.56;89.11;92404.25;5091557;28;20054;-34
2022/11/18 04:22:58;;;;;;;35.05;3.83;;;;;;;4.50;88.98;92407.13;5091665;28;20032;-34
2022/11/18 04:25:24;;;;;;;16.50;2.53;;;;;;;4.43;89.20;92396.13;5090961;28;20526;-34
2022/11/18 04:27:50;;;;;;;18.70;2.88;;;;;;;4.38;89.62;92411.41;5091682;28;20027;-34
2022/11/18 04:30:16;;;;;;;32.40;2.80;;;;;;;4.37;90.43;92407.22;5091172;28;20023;-34
2022/11/18 04:32:41;;;;;;;34.28;2.97;;;;;;;4.36;90.61;92411.19;5091469;28;20073;-34
2022/11/18 04:35:10;;;;;;;20.50;2.60;;;;;;;4.35;91.24;92401.53;5091137;28;20201;-34
2022/11/18 04:37:35;;;;;;;20.98;3.63;;;;;;;4.38;90.84;92397.75;5091154;28;20089;-34
2022/11/18 04:40:01;;;;;;;24.90;4.18;;;;;;;4.36;90.95;92416.66;5090942;28;20032;-34
2022/11/18 04:42:27;;;;;;;27.40;5.78;;;;;;;4.31;91.48;92397.69;5091351;28;20027;-34
2022/11/18 04:44:52;;;;;;;20.38;7.38;;;;;;;4.28;92.24;92410.41;5091089;28;20027;-34
2022/11/18 04:47:17;;;;;;;31.98;6.38;;;;;;;4.07;92.39;92382.34;5090901;28;20035;-34
2022/11/18 04:49:43;;;;;;;48.95;13.55;;;;;;;4.28;93.35;92410.41;5073187;28;20107;-34
2022/11/18 04:52:09;;;;;;;51.90;8.85;;;;;;;4.41;93.18;92407.59;5091145;28;20050;-34
2022/11/18 04:54:37;;;;;;;23.15;10.07;;;;;;;4.29;93.00;92402.94;5090851;28;20407;-34
2022/11/18 04:57:02;;;;;;;33.13;11.63;;;;;;;4.32;92.83;92416.28;5091003;28;20024;-34
2022/11/18 04:59:28;;;;;;;23.15;12.88;;;;;;;4.25;92.89;92416.94;5090931;28;20580;-34
2022/11/18 05:01:55;;;;;;;66.97;12.38;;;;;;;4.23;93.26;92419.47;5090800;28;20452;-34
2022/11/18 05:04:23;;;;;;;43.38;6.97;;;;;;;4.24;92.44;92418.22;5090949;28;20031;-34
2022/11/18 05:06:49;;;;;;;59.10;8.35;;;;;;;4.17;93.52;92416.13;5090773;28;20154;-34
2022/11/18 05:09:15;;;;;;;30.13;3.53;;;;;;;4.29;93.61;92413.84;5090498;28;20051;-34
2022/11/18 05:14:26;;;;;;;32.03;6.10;;;;;;;4.29;92.60;92403.66;5090667;28;20077;-34
2022/11/18 05:16:52;;;;;;;31.45;4.57;;;;;;;4.26;92.59;92412.22;5090668;28;20064;-34
2022/11/18 05:19:17;;;;;;;56.45;4.75;;;;;;;4.23;92.80;92408.53;5090124;28;20546;-34
2022/11/18 05:21:43;;;;;;;12.70;4.25;;;;;;;4.30;93.46;92409.88;5072312;28;20110;-34
2022/11/18 05:24:08;;;;;;;24.00;4.22;;;;;;;4.36;93.12;92408.47;5090636;28;20035;-34
2022/11/18 05:26:34;;;;;;;24.45;5.95;;;;;;;4.31;92.19;92409.31;5089929;28;20031;-34
2022/11/18 05:28:59;;;;;;;26.83;4.70;;;;;;;4.37;92.11;92411.94;5090157;28;20023;-34
2022/11/18 05:31:25;;;;;;;11.18;5.03;;;;;;;4.35;91.91;92414.47;5090554;28;20023;-34
2022/11/18 05:33:50;;;;;;;38.63;10.43;;;;;;;4.33;92.09;92423.19;5090223;28;20702;-34
2022/11/18 05:36:18;;;;;;;15.85;8.52;;;;;;;4.29;91.65;92417.31;5090306;28;20031;-34
2022/11/18 05:38:43;;;;;;;32.58;10.75;;;;;;;4.30;91.11;92418.06;5090488;28;20067;-34
2022/11/18 05:41:09;;;;;;;23.88;12.38;;;;;;;4.36;90.32;92418.66;5090420;28;20604;-34
2022/11/18 05:43:36;;;;;;;15.98;3.67;;;;;;;4.35;88.64;92415.19;5090671;28;20100;-34
2022/11/18 05:46:02;;;;;;;16.80;2.88;;;;;;;4.28;89.24;92424.06;5090529;28;20036;-34
2022/11/18 05:48:28;;;;;;;35.53;3.70;;;;;;;4.17;89.35;92427.06;5090467;28;20031;-34
2022/11/18 05:50:54;;;;;;;12.38;2.47;;;;;;;4.26;89.27;92426.59;5090487;28;20415;-34
2022/11/18 05:53:22;;;;;;;13.52;2.40;;;;;;;4.30;89.42;92427.00;5090031;28;20040;-34
2022/11/18 05:56:09;;;;;;;61.63;21.35;;;;;;;4.33;89.78;92425.22;5090405;28;20385;-34
2022/11/18 05:58:34;;;;;;;37.05;8.68;;;;;;;4.36;89.51;92427.59;5072051;28;20039;-34
2022/11/18 06:01:03;;;;;;;13.55;4.80;;;;;;;4.49;90.07;92426.78;5090274;28;20028;-34
2022/11/18 06:03:30;;;;;;;27.52;4.65;;;;;;;4.63;90.00;92430.94;5072101;28;20032;-34
2022/11/18 06:05:58;;;;;;;28.15;5.93;;;;;;;4.72;89.97;92435.91;5071949;28;20020;-34
2022/11/18 06:08:25;;;;;;;78.30;9.38;;;;;;;4.87;88.87;92430.56;5089960;28;20024;-34
2022/11/18 06:10:52;;;;;;;87.93;10.02;;;;;;;4.96;88.90;92427.31;5072219;28;20028;-34
2022/11/18 06:13:24;;;;;;;78.72;8.80;;;;;;;5.06;88.51;92433.78;5089912;28;20036;-34
2022/11/18 06:15:50;;;;;;;90.90;13.60;;;;;;;5.06;87.72;92419.38;5090162;28;20040;-34
2022/11/18 06:18:28;;;;;;;122.97;22.27;;;;;;;5.15;87.60;92424.34;5071871;28;20100;-34
2022/11/18 06:20:55;;;;;;;83.13;22.83;;;;;;;5.32;87.14;92422.63;5071938;28;20055;-34
2022/11/18 06:23:21;;;;;;;54.72;13.73;;;;;;;5.49;86.41;92413.22;5071606;28;20100;-34
2022/11/18 06:25:47;;;;;;;21.77;5.47;;;;;;;5.44;84.86;92414.81;5071862;28;20016;-34
2022/11/18 06:28:14;;;;;;;42.70;7.93;;;;;;;5.50;84.25;92414.69;5072062;28;20377;-34
2022/11/18 06:30:39;;;;;;;17.63;5.78;;;;;;;5.66;84.20;92418.94;5089638;28;20023;-34
2022/11/18 06:33:05;;;;;;;5.85;3.08;;;;;;;5.83;82.99;92424.66;5089705;28;20024;-34
2022/11/18 06:35:30;;;;;;;23.55;5.45;;;;;;;5.80;81.99;92431.22;5089657;28;20024;-34
2022/11/18 06:37:56;;;;;;;40.47;10.48;;;;;;;5.99;82.12;92424.22;5090669;28;20027;-34
2022/11/18 06:40:21;;;;;;;15.23;6.68;;;;;;;5.87;81.60;92431.28;5093262;28;20575;-34
2022/11/18 06:45:31;;;;;;;8.85;4.07;;;;;;;6.17;82.54;92416.22;5093409;28;20038;-34
2022/11/18 06:47:57;;;;;;;5.10;3.88;;;;;;;6.72;81.75;92415.16;5093403;28;20024;-34
2022/11/18 06:50:22;;;;;;;10.43;2.72;;;;;;;6.93;78.80;92406.72;5093121;28;20043;-34
2022/11/18 06:52:48;;;;;;;6.13;3.17;;;;;;;7.06;78.32;92412.00;5093189;28;20050;-34
2022/11/18 06:55:13;;;;;;;20.13;3.30;;;;;;;7.27;77.85;92404.31;5093268;28;20027;-34
2022/11/18 06:57:39;;;;;;;15.85;6.57;;;;;;;8.22;76.90;92420.78;5093365;28;20031;-34
2022/11/18 07:00:05;;;;;;;16.50;7.38;;;;;;;8.36;72.71;92403.50;5092880;28;20016;-34
2022/11/18 07:02:31;;;;;;;21.65;8.63;;;;;;;8.19;73.47;92400.66;5092912;28;20028;-34
2022/11/18 07:04:57;;;;;;;25.70;11.13;;;;;;;9.20;74.32;92406.34;5093144;28;20027;-34
2022/11/18 07:07:22;;;;;;;31.50;12.27;;;;;;;9.35;69.54;92395.19;5093034;28;20416;-34
2022/11/18 07:09:48;;;;;;;28.13;13.10;;;;;;;9.77;69.87;92417.13;5093193;28;20107;-34
2022/11/18 07:12:13;;;;;;;19.45;10.63;;;;;;;10.15;67.75;92411.22;5092816;28;20028;-34
2022/11/18 07:14:38;;;;;;;18.52;9.30;;;;;;;10.20;68.16;92418.50;5092811;28;20042;-34
2022/11/18 07:17:04;;;;;;;18.98;10.45;;;;;;;10.18;68.30;92429.38;5092471;28;20016;-35
2022/11/18 07:19:30;;;;;;;18.23;11.52;;;;;;;10.26;67.50;92418.97;5092490;28;20443;-34
2022/11/18 07:21:56;;;;;;;18.63;11.75;;;;;;;10.66;67.36;92419.34;5092631;28;20020;-34
2022/11/18 07:24:21;;;;;;;16.42;11.63;;;;;;;10.92;66.91;92432.38;5092450;28;20523;-34
2022/11/18 07:26:47;;;;;;;19.25;10.32;;;;;;;10.76;66.33;92419.38;5092227;28;20028;-34
2022/11/18 07:29:13;;;;;;;19.80;10.50;;;;;;;10.64;66.70;92413.66;5092213;28;20093;-34
2022/11/18 07:31:38;;;;;;;16.95;11.40;;;;;;;10.71;67.65;92412.09;5092345;28;20556;-34
2022/11/18 07:34:04;;;;;;;14.13;8.18;;;;;;;10.66;67.45;92420.06;5092349;28;20107;-34
2022/11/18 07:36:30;;;;;;;19.15;9.27;;;;;;;10.82;66.34;92404.00;5092601;28;20407;-34
2022/11/18 07:38:58;;;;;;;10.57;7.95;;;;;;;11.44;66.43;92405.91;5092545;28;20038;-34
2022/11/18 07:41:26;;;;;;;27.30;20.00;;;;;;;12.09;64.75;92397.53;5092130;28;20046;-34
2022/11/18 07:43:54;;;;;;;26.33;15.60;;;;;;;12.68;63.34;92396.09;5092170;28;20031;-34
2022/11/18 07:46:36;;;;;;;36.10;19.73;;;;;;;12.99;61.66;92401.69;5092420;28;20031;-34
2022/11/18 07:49:04;;;;;;;18.42;13.57;;;;;;;13.12;61.62;92401.94;5091737;28;20081;-34
2022/11/18 07:51:33;;;;;;;20.65;9.27;;;;;;;13.17;61.00;92391.84;5092347;28;20103;-34
2022/11/18 07:53:58;;;;;;;16.27;6.35;;;;;;;13.53;59.59;92392.25;5092218;28;20046;-34
2022/11/18 07:56:24;;;;;;;12.18;5.13;;;;;;;14.08;58.42;92390.94;5091886;28;20496;-34
2022/11/18 07:58:53;;;;;;;8.18;5.05;;;;;;;14.28;57.10;92377.63;5091864;28;20024;-34
2022/11/18 08:01:20;;;;;;;;;;;;;;;15.63;56.67;92378.28;5092600;28;20106;-35
2022/11/18 08:03:45;;;;;;;12.27;8.73;;;;;;;16.97;52.80;92373.22;5091793;28;19908;-34
2022/11/18 08:06:13;;;;;;;10.80;7.95;;;;;;;18.05;51.01;92369.75;5091648;28;20103;-35
2022/11/18 08:08:39;;;;;;;9.23;7.18;;;;;;;19.23;47.17;92364.81;5091560;28;20020;-34
2022/11/18 08:11:08;;;;;;;11.20;7.38;;;;;;;20.30;43.31;92359.69;5091557;28;20039;-35
2022/11/18 08:13:34;;;;;;;9.98;7.18;;;;;;;21.20;41.72;92373.09;5091580;28;20423;-35
2022/11/18 08:16:00;;;;;;;13.73;9.23;;;;;;;21.82;40.66;92369.78;5091554;28;20526;-35
2022/11/18 08:18:27;;;;;;;11.68;8.57;;;;;;;22.45;39.79;92369.09;5073314;28;20079;-35
2022/11/18 08:20:52;;;;;;;13.93;10.10;;;;;;;22.40;38.92;92379.50;5091776;28;20052;-35
2022/11/18 08:23:18;;;;;;;14.52;11.68;;;;;;;22.47;38.92;92361.44;5091697;28;20116;-35
2022/11/18 08:25:44;;;;;;;16.88;12.07;;;;;;;22.92;39.03;92363.59;5091020;28;20028;-35
2022/11/18 08:28:11;;;;;;;15.30;11.30;;;;;;;22.90;38.07;92369.19;5091397;28;20561;-35
2022/11/18 08:30:37;;;;;;;19.70;13.77;;;;;;;22.78;38.65;92368.81;5091192;28;20097;-35
2022/11/18 08:33:03;;;;;;;24.80;17.15;;;;;;;22.11;40.68;92379.88;5091206;28;20062;-35
2022/11/18 08:35:29;;;;;;;25.58;17.92;;;;;;;23.30;38.83;92375.34;5091511;28;20784;-35
2022/11/18 08:37:54;;;;;;;20.90;14.95;;;;;;;23.84;37.63;92368.50;5091786;28;20444;-35
2022/11/18 08:40:20;;;;;;;20.25;14.75;;;;;;;24.09;36.16;92361.41;5091080;28;20100;-35
2022/11/18 08:42:46;;;;;;;35.08;25.75;;;;;;;24.05;36.73;92350.03;5091314;28;20507;-35
2022/11/18 08:45:11;;;;;;;19.33;14.88;;;;;;;24.48;37.43;92357.50;5091210;28;20675;-35
2022/11/18 08:47:37;;;;;;;25.00;18.58;;;;;;;25.17;36.21;92357.06;5091242;28;20024;-35
2022/11/18 08:50:04;;;;;;;16.10;10.43;;;;;;;25.71;35.59;92358.28;5091157;28;20189;-35
2022/11/18 08:52:29;;;;;;;13.45;11.20;;;;;;;26.22;34.31;92351.53;5091098;28;20020;-35
2022/11/18 08:54:55;;;;;;;8.57;7.63;;;;;;;26.63;34.69;92348.03;5091151;28;20077;-35
2022/11/18 08:57:20;;;;;;;7.80;5.90;;;;;;;27.08;33.16;92338.16;5091077;28;20695;-35
2022/11/18 08:59:45;;;;;;;4.30;2.97;;;;;;;26.89;31.82;92339.28;5090595;28;20058;-35
2022/11/18 09:02:16;;;;;;;2.90;1.75;;;;;;;25.84;32.76;92339.44;5090381;28;20034;-35
2022/11/18 09:04:41;;;;;;;2.00;1.63;;;;;;;25.72;32.71;92331.44;5090600;28;20020;-35
2022/11/18 09:07:07;;;;;;;1.75;1.58;;;;;;;25.21;33.36;92337.41;5090546;28;20038;-35
2022/11/18 09:09:32;;;;;;;2.65;1.60;;;;;;;24.34;34.32;92329.66;5090847;28;20012;-35
2022/11/18 09:11:58;;;;;;;1.95;1.50;;;;;;;24.25;35.04;92333.66;5090706;28;20518;-34
2022/11/18 09:14:23;;;;;;;3.45;1.83;;;;;;;23.63;36.13;92315.75;5090764;28;20023;-35
2022/11/18 09:16:48;;;;;;;1.92;1.60;;;;;;;23.88;36.00;92317.13;5090469;28;20194;-35
2022/11/18 09:19:15;;;;;;;2.05;1.65;;;;;;;24.06;35.51;92303.56;5090228;28;20048;-35
2022/11/18 09:21:41;;;;;;;2.13;1.48;;;;;;;23.93;35.22;92296.81;5090765;28;20055;-35
2022/11/18 09:24:08;;;;;;;3.85;1.65;;;;;;;23.53;34.95;92286.56;5090492;28;20424;-34
2022/11/18 09:26:34;;;;;;;2.40;1.50;;;;;;;23.83;35.63;92276.84;5090328;28;20080;-34
2022/11/18 09:28:59;;;;;;;2.03;1.58;;;;;;;24.14;34.78;92278.38;5090658;28;20047;-34
2022/11/18 09:31:25;;;;;;;2.85;1.75;;;;;;;23.69;35.51;92267.28;5090331;28;20496;-35
2022/11/18 09:33:50;;;;;;;3.08;1.65;;;;;;;23.88;36.01;92260.75;5090392;28;20020;-35
2022/11/18 09:36:18;;;;;;;3.72;1.60;;;;;;;23.14;36.58;92248.13;5090300;28;20020;-35
2022/11/18 09:38:43;;;;;;;4.63;1.75;;;;;;;23.41;35.95;92239.06;5090464;28;20415;-34
2022/11/18 09:41:09;;;;;;;1.77;1.42;;;;;;;23.14;36.85;92236.88;5090470;28;20024;-35
2022/11/18 09:43:53;;;;;;;3.72;1.80;;;;;;;23.32;35.91;92235.25;5090510;28;20115;-35
2022/11/18 09:46:49;;;;;;;3.28;1.42;;;;;;;23.59;35.61;92236.72;5090216;28;20085;-34
2022/11/18 09:49:39;;;;;;;1.75;1.20;;;;;;;24.42;35.37;92227.56;5090130;28;20027;-35
2022/11/18 09:52:28;;;;;;;1.67;1.45;;;;;;;24.42;33.79;92231.09;5089663;28;20118;-35
2022/11/18 09:54:53;;;;;;;2.10;1.90;;;;;;;24.81;34.31;92235.53;5090212;28;20114;-35
2022/11/18 09:57:37;;;;;;;1.60;1.50;;;;;;;25.21;33.77;92241.34;5090170;28;20028;-35
2022/11/18 10:00:35;;;;;;;4.13;1.60;;;;;;;25.29;33.59;92239.41;5071998;28;20115;-35
2022/11/18 10:03:08;;;;;;;2.53;1.40;;;;;;;24.35;32.86;92242.91;5056453;28;20051;-35
2022/11/18 10:05:50;;;;;;;2.53;1.73;;;;;;;24.25;33.15;92240.56;5059206;28;20078;-35
2022/11/18 10:08:34;;;;;;;2.10;1.90;;;;;;;23.49;33.87;92244.19;5090049;28;20032;-35
2022/11/18 10:11:23;;;;;;;1.75;1.30;;;;;;;23.73;33.45;92230.75;5090344;28;20070;-34
2022/11/18 10:14:07;;;;;;;;;;;;;;;23.97;33.96;92251.81;5076716;28;20032;-35
2022/11/18 10:16:54;;;;;;;2.75;1.33;;;;;;;24.70;32.26;92253.63;5093803;28;19915;-35
2022/11/18 10:19:45;;;;;;;3.33;1.25;;;;;;;25.26;31.79;92251.31;5093583;28;20074;-35
2022/11/18 10:22:21;;;;;;;2.88;1.50;;;;;;;25.50;31.21;92232.78;5075679;28;20585;-35
2022/11/18 10:24:52;;;;;;;1.85;1.60;;;;;;;24.56;32.97;92227.91;5075628;28;20028;-35
2022/11/18 10:27:18;;;;;;;2.47;1.35;;;;;;;24.02;34.10;92221.63;5093727;28;20024;-35
2022/11/18 10:29:45;;;;;;;1.85;1.52;;;;;;;24.33;33.89;92223.09;5093546;28;20403;-35
2022/11/18 10:32:15;;;;;;;4.28;1.50;;;;;;;23.75;35.13;92225.91;5075466;28;20082;-34
2022/11/18 10:34:57;;;;;;;3.75;1.48;;;;;;;24.45;34.26;92229.06;5093494;28;20648;-35
2022/11/18 10:37:30;;;;;;;3.10;1.52;;;;;;;24.82;33.28;92231.31;5093682;28;20062;-35
2022/11/18 10:39:57;;;;;;;2.38;1.60;;;;;;;23.54;35.19;92223.91;5093375;28;20484;-35
2022/11/18 10:42:28;;;;;;;2.78;1.90;;;;;;;23.88;34.38;92226.91;5093575;28;20024;-35
2022/11/18 10:44:55;;;;;;;1.52;1.42;;;;;;;23.70;34.99;92223.63;5093602;28;20069;-35
2022/11/18 10:47:30;;;;;;;1.73;1.55;;;;;;;24.17;34.86;92211.47;5075167;28;20016;-35
2022/11/18 10:50:00;;;;;;;6.40;1.88;;;;;;;24.61;34.50;92215.28;5093593;28;20085;-35
2022/11/18 10:52:28;;;;;;;2.67;1.80;;;;;;;24.25;33.57;92200.34;5093425;28;20496;-35
2022/11/18 10:55:12;;;;;;;2.83;1.35;;;;;;;24.51;33.69;92203.78;5075386;28;20027;-35
2022/11/18 10:57:44;;;;;;;5.72;3.05;;;;;;;24.78;34.50;92197.34;5092932;28;20012;-35
2022/11/18 11:00:35;;;;;;;3.38;1.70;;;;;;;24.97;32.79;92199.16;5093199;28;20032;-35
2022/11/18 11:03:19;;;;;;;3.35;1.40;;;;;;;24.68;32.52;92206.31;5093034;28;20031;-35
2022/11/18 11:05:45;;;;;;;1.63;1.10;;;;;;;24.47;33.00;92209.34;5075050;28;20105;-35
2022/11/18 11:08:19;;;;;;;0.93;0.93;;;;;;;23.92;33.29;92215.75;5075177;28;20515;-35
2022/11/18 11:10:55;;;;;;;2.35;1.40;;;;;;;22.88;34.54;92196.69;5092859;28;20028;-35
2022/11/18 11:13:23;;;;;;;3.30;1.60;;;;;;;22.63;36.25;92186.13;5092740;28;20521;-35
2022/11/18 11:15:50;;;;;;;2.33;1.30;;;;;;;22.52;36.20;92197.03;5058308;28;20048;-35
2022/11/18 11:18:40;;;;;;;1.33;1.20;;;;;;;22.38;36.16;92188.19;5092640;28;20201;-34
2022/11/18 11:21:16;;;;;;;1.58;1.48;;;;;;;21.10;37.86;92179.75;5076686;28;20450;-34
2022/11/18 11:23:42;;;;;;;1.65;1.38;;;;;;;21.06;38.93;92167.66;5074191;28;20103;-34
2022/11/18 11:26:25;;;;;;;1.50;1.35;;;;;;;21.32;38.31;92162.22;5074250;28;20514;-34
2022/11/18 11:29:14;;;;;;;4.15;1.67;;;;;;;21.82;38.31;92158.28;5074430;28;20024;-34
2022/11/18 11:31:56;;;;;;;1.58;1.48;;;;;;;21.17;39.42;92151.88;5091831;28;20059;-34
2022/11/18 11:34:54;;;;;;;3.47;1.77;;;;;;;20.92;39.62;92153.81;5074326;28;20112;-34
2022/11/18 11:37:34;;;;;;;4.60;1.83;;;;;;;21.47;40.20;92166.94;5074294;28;20038;-34
2022/11/18 11:40:09;;;;;;;3.88;1.70;;;;;;;21.23;37.98;92150.00;5092330;28;20028;-34
2022/11/18 11:42:35;;;;;;;4.22;1.73;;;;;;;21.29;38.94;92152.31;5092495;28;20020;-35
2022/11/18 11:45:04;;;;;;;3.53;1.67;;;;;;;21.43;39.03;92150.69;5092223;28;20062;-34
2022/11/18 11:47:56;;;;;;;2.10;1.35;;;;;;;22.20;37.67;92153.88;5092101;28;20031;-35
2022/11/18 11:50:23;;;;;;;3.95;1.65;;;;;;;21.61;39.23;92147.75;5074378;28;20078;-34
2022/11/18 11:52:58;;;;;;;1.90;1.45;;;;;;;21.51;38.00;92150.94;5074048;28;20503;-35
2022/11/18 11:55:28;;;;;;;3.17;1.55;;;;;;;21.34;38.65;92151.06;5073607;28;20420;-34